sensor_id;sensor_type;location;lat;lon;timestamp;P1;durP1;ratioP1;P2;durP2;ratioP2
13032;SDS011;6583;42.632;23.298;2022-12-29T00:01:22;18.03;;;13.60;;
13032;SDS011;6583;42.632;23.298;2022-12-29T00:03:49;16.33;;;12.60;;
13032;SDS011;6583;42.632;23.298;2022-12-29T00:06:16;16.97;;;13.27;;
13032;SDS011;6583;42.632;23.298;2022-12-29T00:08:42;16.43;;;11.97;;
13032;SDS011;6583;42.632;23.298;2022-12-29T00:11:10;18.80;;;13.20;;
13032;SDS011;6583;42.632;23.298;2022-12-29T00:13:39;16.57;;;13.07;;
13032;SDS011;6583;42.632;23.298;2022-12-29T00:16:23;17.43;;;12.20;;
13032;SDS011;6583;42.632;23.298;2022-12-29T00:18:50;16.13;;;12.00;;
13032;SDS011;6583;42.632;23.298;2022-12-29T00:21:18;16.07;;;13.07;;
13032;SDS011;6583;42.632;23.298;2022-12-29T00:24:04;17.30;;;13.43;;
13032;SDS011;6583;42.632;23.298;2022-12-29T00:27:08;17.17;;;12.83;;
13032;SDS011;6583;42.632;23.298;2022-12-29T00:29:56;16.53;;;12.23;;
13032;SDS011;6583;42.632;23.298;2022-12-29T00:32:40;19.57;;;13.10;;
13032;SDS011;6583;42.632;23.298;2022-12-29T00:35:25;21.57;;;15.30;;
13032;SDS011;6583;42.632;23.298;2022-12-29T00:37:55;21.47;;;15.70;;
13032;SDS011;6583;42.632;23.298;2022-12-29T00:40:42;23.43;;;16.07;;
13032;SDS011;6583;42.632;23.298;2022-12-29T00:43:41;22.73;;;16.57;;
13032;SDS011;6583;42.632;23.298;2022-12-29T00:46:26;22.70;;;16.30;;
13032;SDS011;6583;42.632;23.298;2022-12-29T00:48:53;21.67;;;16.00;;
13032;SDS011;6583;42.632;23.298;2022-12-29T00:51:37;22.97;;;16.80;;
13032;SDS011;6583;42.632;23.298;2022-12-29T00:54:04;21.77;;;16.10;;
13032;SDS011;6583;42.632;23.298;2022-12-29T00:56:30;24.87;;;18.03;;
13032;SDS011;6583;42.632;23.298;2022-12-29T00:58:59;25.83;;;18.10;;
13032;SDS011;6583;42.632;23.298;2022-12-29T01:01:28;25.30;;;18.00;;
13032;SDS011;6583;42.632;23.298;2022-12-29T01:03:54;27.97;;;19.67;;
13032;SDS011;6583;42.632;23.298;2022-12-29T01:06:21;27.50;;;19.10;;
13032;SDS011;6583;42.632;23.298;2022-12-29T01:08:49;24.20;;;18.77;;
13032;SDS011;6583;42.632;23.298;2022-12-29T01:11:37;27.03;;;19.73;;
13032;SDS011;6583;42.632;23.298;2022-12-29T01:14:03;25.33;;;18.80;;
13032;SDS011;6583;42.632;23.298;2022-12-29T01:16:32;28.27;;;19.73;;
13032;SDS011;6583;42.632;23.298;2022-12-29T01:18:59;26.43;;;18.77;;
13032;SDS011;6583;42.632;23.298;2022-12-29T01:21:25;29.13;;;19.57;;
13032;SDS011;6583;42.632;23.298;2022-12-29T01:23:52;28.77;;;20.47;;
13032;SDS011;6583;42.632;23.298;2022-12-29T01:26:19;28.30;;;19.93;;
13032;SDS011;6583;42.632;23.298;2022-12-29T01:28:45;28.60;;;20.13;;
13032;SDS011;6583;42.632;23.298;2022-12-29T01:31:13;32.70;;;22.40;;
13032;SDS011;6583;42.632;23.298;2022-12-29T01:33:42;26.60;;;19.60;;
13032;SDS011;6583;42.632;23.298;2022-12-29T01:36:11;29.63;;;20.90;;
13032;SDS011;6583;42.632;23.298;2022-12-29T01:38:40;30.60;;;22.23;;
13032;SDS011;6583;42.632;23.298;2022-12-29T01:41:07;30.20;;;20.83;;
13032;SDS011;6583;42.632;23.298;2022-12-29T01:43:39;32.17;;;22.47;;
13032;SDS011;6583;42.632;23.298;2022-12-29T01:46:08;34.23;;;22.93;;
13032;SDS011;6583;42.632;23.298;2022-12-29T01:48:46;32.20;;;23.07;;
13032;SDS011;6583;42.632;23.298;2022-12-29T01:51:15;35.60;;;24.03;;
13032;SDS011;6583;42.632;23.298;2022-12-29T01:53:42;33.47;;;24.37;;
13032;SDS011;6583;42.632;23.298;2022-12-29T01:56:11;34.13;;;24.83;;
13032;SDS011;6583;42.632;23.298;2022-12-29T01:58:41;33.37;;;23.87;;
13032;SDS011;6583;42.632;23.298;2022-12-29T02:01:12;34.33;;;24.13;;
13032;SDS011;6583;42.632;23.298;2022-12-29T02:03:39;31.87;;;23.70;;
13032;SDS011;6583;42.632;23.298;2022-12-29T02:06:08;28.43;;;21.37;;
13032;SDS011;6583;42.632;23.298;2022-12-29T02:08:39;31.93;;;23.50;;
13032;SDS011;6583;42.632;23.298;2022-12-29T02:11:07;31.37;;;23.00;;
13032;SDS011;6583;42.632;23.298;2022-12-29T02:13:34;30.50;;;22.23;;
13032;SDS011;6583;42.632;23.298;2022-12-29T02:16:03;32.47;;;23.27;;
13032;SDS011;6583;42.632;23.298;2022-12-29T02:18:41;32.37;;;22.23;;
13032;SDS011;6583;42.632;23.298;2022-12-29T02:24:20;33.90;;;24.57;;
13032;SDS011;6583;42.632;23.298;2022-12-29T02:30:13;36.33;;;25.03;;
13032;SDS011;6583;42.632;23.298;2022-12-29T02:32:51;36.57;;;26.40;;
13032;SDS011;6583;42.632;23.298;2022-12-29T02:35:28;35.60;;;26.63;;
13032;SDS011;6583;42.632;23.298;2022-12-29T02:38:03;35.83;;;26.17;;
13032;SDS011;6583;42.632;23.298;2022-12-29T02:40:40;35.67;;;26.03;;
13032;SDS011;6583;42.632;23.298;2022-12-29T02:43:14;37.40;;;27.50;;
13032;SDS011;6583;42.632;23.298;2022-12-29T02:45:48;37.27;;;27.23;;
13032;SDS011;6583;42.632;23.298;2022-12-29T02:48:22;40.73;;;30.50;;
13032;SDS011;6583;42.632;23.298;2022-12-29T02:50:57;46.67;;;32.00;;
13032;SDS011;6583;42.632;23.298;2022-12-29T02:53:29;47.70;;;31.43;;
13032;SDS011;6583;42.632;23.298;2022-12-29T02:56:14;37.63;;;28.33;;
13032;SDS011;6583;42.632;23.298;2022-12-29T02:58:41;45.03;;;31.50;;
13032;SDS011;6583;42.632;23.298;2022-12-29T03:01:13;44.20;;;32.83;;
13032;SDS011;6583;42.632;23.298;2022-12-29T03:03:53;46.77;;;32.07;;
13032;SDS011;6583;42.632;23.298;2022-12-29T03:06:32;48.10;;;33.13;;
13032;SDS011;6583;42.632;23.298;2022-12-29T03:09:11;44.83;;;32.17;;
13032;SDS011;6583;42.632;23.298;2022-12-29T03:11:48;47.50;;;32.90;;
13032;SDS011;6583;42.632;23.298;2022-12-29T03:14:41;44.53;;;31.80;;
13032;SDS011;6583;42.632;23.298;2022-12-29T03:17:35;45.90;;;32.63;;
13032;SDS011;6583;42.632;23.298;2022-12-29T03:20:13;47.20;;;33.50;;
13032;SDS011;6583;42.632;23.298;2022-12-29T03:22:43;39.17;;;28.90;;
13032;SDS011;6583;42.632;23.298;2022-12-29T03:25:13;48.40;;;32.77;;
13032;SDS011;6583;42.632;23.298;2022-12-29T03:27:46;46.40;;;33.30;;
13032;SDS011;6583;42.632;23.298;2022-12-29T03:30:16;48.03;;;34.37;;
13032;SDS011;6583;42.632;23.298;2022-12-29T03:32:44;49.10;;;34.67;;
13032;SDS011;6583;42.632;23.298;2022-12-29T03:35:14;43.33;;;30.83;;
13032;SDS011;6583;42.632;23.298;2022-12-29T03:37:44;44.20;;;30.17;;
13032;SDS011;6583;42.632;23.298;2022-12-29T03:40:16;42.70;;;29.63;;
13032;SDS011;6583;42.632;23.298;2022-12-29T03:42:44;41.67;;;29.77;;
13032;SDS011;6583;42.632;23.298;2022-12-29T03:45:13;37.77;;;29.00;;
13032;SDS011;6583;42.632;23.298;2022-12-29T03:47:39;40.23;;;28.47;;
13032;SDS011;6583;42.632;23.298;2022-12-29T03:50:06;37.03;;;28.10;;
13032;SDS011;6583;42.632;23.298;2022-12-29T03:52:35;35.50;;;26.77;;
13032;SDS011;6583;42.632;23.298;2022-12-29T03:55:02;35.43;;;26.03;;
13032;SDS011;6583;42.632;23.298;2022-12-29T03:57:29;32.63;;;24.67;;
13032;SDS011;6583;42.632;23.298;2022-12-29T03:59:56;35.77;;;25.07;;
13032;SDS011;6583;42.632;23.298;2022-12-29T04:02:22;34.50;;;23.90;;
13032;SDS011;6583;42.632;23.298;2022-12-29T04:04:49;30.10;;;20.63;;
13032;SDS011;6583;42.632;23.298;2022-12-29T04:07:16;30.03;;;21.33;;
13032;SDS011;6583;42.632;23.298;2022-12-29T04:09:44;27.23;;;18.83;;
13032;SDS011;6583;42.632;23.298;2022-12-29T04:12:11;26.20;;;16.33;;
13032;SDS011;6583;42.632;23.298;2022-12-29T04:14:38;24.33;;;18.40;;
13032;SDS011;6583;42.632;23.298;2022-12-29T04:17:05;25.20;;;18.40;;
13032;SDS011;6583;42.632;23.298;2022-12-29T04:19:32;24.53;;;17.37;;
13032;SDS011;6583;42.632;23.298;2022-12-29T04:21:58;24.13;;;18.03;;
13032;SDS011;6583;42.632;23.298;2022-12-29T04:24:25;22.23;;;17.43;;
13032;SDS011;6583;42.632;23.298;2022-12-29T04:26:53;23.50;;;17.90;;
13032;SDS011;6583;42.632;23.298;2022-12-29T04:29:20;24.63;;;17.70;;
13032;SDS011;6583;42.632;23.298;2022-12-29T04:31:46;28.60;;;19.37;;
13032;SDS011;6583;42.632;23.298;2022-12-29T04:34:13;22.60;;;17.33;;
13032;SDS011;6583;42.632;23.298;2022-12-29T04:36:40;22.97;;;17.23;;
13032;SDS011;6583;42.632;23.298;2022-12-29T04:39:07;27.17;;;18.13;;
13032;SDS011;6583;42.632;23.298;2022-12-29T04:41:33;26.83;;;18.70;;
13032;SDS011;6583;42.632;23.298;2022-12-29T04:44:01;25.70;;;19.07;;
13032;SDS011;6583;42.632;23.298;2022-12-29T04:46:28;30.30;;;21.80;;
13032;SDS011;6583;42.632;23.298;2022-12-29T04:48:55;29.07;;;22.00;;
13032;SDS011;6583;42.632;23.298;2022-12-29T04:51:21;28.70;;;21.30;;
13032;SDS011;6583;42.632;23.298;2022-12-29T04:53:48;30.37;;;20.83;;
13032;SDS011;6583;42.632;23.298;2022-12-29T04:56:15;28.27;;;20.50;;
13032;SDS011;6583;42.632;23.298;2022-12-29T04:58:41;30.27;;;21.47;;
13032;SDS011;6583;42.632;23.298;2022-12-29T05:01:09;28.43;;;21.27;;
13032;SDS011;6583;42.632;23.298;2022-12-29T05:03:36;30.97;;;22.60;;
13032;SDS011;6583;42.632;23.298;2022-12-29T05:06:04;30.47;;;22.83;;
13032;SDS011;6583;42.632;23.298;2022-12-29T05:08:31;30.63;;;22.90;;
13032;SDS011;6583;42.632;23.298;2022-12-29T05:10:57;29.53;;;22.83;;
13032;SDS011;6583;42.632;23.298;2022-12-29T05:13:24;35.50;;;25.50;;
13032;SDS011;6583;42.632;23.298;2022-12-29T05:15:51;31.90;;;24.07;;
13032;SDS011;6583;42.632;23.298;2022-12-29T05:18:19;40.63;;;27.13;;
13032;SDS011;6583;42.632;23.298;2022-12-29T05:20:46;37.20;;;26.13;;
13032;SDS011;6583;42.632;23.298;2022-12-29T05:23:13;36.63;;;26.47;;
13032;SDS011;6583;42.632;23.298;2022-12-29T05:25:40;37.40;;;26.33;;
13032;SDS011;6583;42.632;23.298;2022-12-29T05:28:07;38.80;;;27.77;;
13032;SDS011;6583;42.632;23.298;2022-12-29T05:30:34;40.87;;;29.17;;
13032;SDS011;6583;42.632;23.298;2022-12-29T05:33:00;43.93;;;30.77;;
13032;SDS011;6583;42.632;23.298;2022-12-29T05:35:28;41.07;;;28.90;;
13032;SDS011;6583;42.632;23.298;2022-12-29T05:37:55;45.67;;;31.83;;
13032;SDS011;6583;42.632;23.298;2022-12-29T05:40:22;42.93;;;31.67;;
13032;SDS011;6583;42.632;23.298;2022-12-29T05:42:48;46.60;;;31.30;;
13032;SDS011;6583;42.632;23.298;2022-12-29T05:45:15;46.23;;;30.97;;
13032;SDS011;6583;42.632;23.298;2022-12-29T05:47:42;44.83;;;30.83;;
13032;SDS011;6583;42.632;23.298;2022-12-29T05:50:08;43.50;;;30.63;;
13032;SDS011;6583;42.632;23.298;2022-12-29T05:52:45;42.30;;;29.73;;
13032;SDS011;6583;42.632;23.298;2022-12-29T05:55:12;65.50;;;31.17;;
13032;SDS011;6583;42.632;23.298;2022-12-29T05:57:39;52.77;;;31.90;;
13032;SDS011;6583;42.632;23.298;2022-12-29T06:00:06;45.87;;;32.13;;
13032;SDS011;6583;42.632;23.298;2022-12-29T06:02:33;45.83;;;31.47;;
13032;SDS011;6583;42.632;23.298;2022-12-29T06:05:00;49.90;;;34.20;;
13032;SDS011;6583;42.632;23.298;2022-12-29T06:07:27;51.07;;;33.60;;
13032;SDS011;6583;42.632;23.298;2022-12-29T06:09:54;50.67;;;34.07;;
13032;SDS011;6583;42.632;23.298;2022-12-29T06:12:21;58.47;;;36.13;;
13032;SDS011;6583;42.632;23.298;2022-12-29T06:14:48;70.37;;;42.20;;
13032;SDS011;6583;42.632;23.298;2022-12-29T06:17:14;52.37;;;34.87;;
13032;SDS011;6583;42.632;23.298;2022-12-29T06:19:41;79.23;;;42.47;;
13032;SDS011;6583;42.632;23.298;2022-12-29T06:22:09;64.87;;;41.47;;
13032;SDS011;6583;42.632;23.298;2022-12-29T06:24:37;58.93;;;40.30;;
13032;SDS011;6583;42.632;23.298;2022-12-29T06:27:05;64.53;;;40.03;;
13032;SDS011;6583;42.632;23.298;2022-12-29T06:29:31;64.03;;;38.83;;
13032;SDS011;6583;42.632;23.298;2022-12-29T06:32:00;73.87;;;43.10;;
13032;SDS011;6583;42.632;23.298;2022-12-29T06:34:26;59.17;;;39.70;;
13032;SDS011;6583;42.632;23.298;2022-12-29T06:36:53;56.03;;;36.77;;
13032;SDS011;6583;42.632;23.298;2022-12-29T06:39:19;61.53;;;40.60;;
13032;SDS011;6583;42.632;23.298;2022-12-29T06:41:46;71.93;;;41.67;;
13032;SDS011;6583;42.632;23.298;2022-12-29T06:44:14;59.53;;;39.80;;
13032;SDS011;6583;42.632;23.298;2022-12-29T06:46:40;53.67;;;36.80;;
13032;SDS011;6583;42.632;23.298;2022-12-29T06:49:07;57.63;;;36.33;;
13032;SDS011;6583;42.632;23.298;2022-12-29T06:51:34;55.90;;;36.83;;
13032;SDS011;6583;42.632;23.298;2022-12-29T06:54:00;55.43;;;35.87;;
13032;SDS011;6583;42.632;23.298;2022-12-29T06:56:27;55.33;;;35.57;;
13032;SDS011;6583;42.632;23.298;2022-12-29T06:58:54;56.17;;;36.50;;
13032;SDS011;6583;42.632;23.298;2022-12-29T07:01:22;53.23;;;36.33;;
13032;SDS011;6583;42.632;23.298;2022-12-29T07:03:49;58.10;;;37.30;;
13032;SDS011;6583;42.632;23.298;2022-12-29T07:06:15;57.40;;;37.30;;
13032;SDS011;6583;42.632;23.298;2022-12-29T07:08:42;56.63;;;37.57;;
13032;SDS011;6583;42.632;23.298;2022-12-29T07:11:08;56.77;;;38.13;;
13032;SDS011;6583;42.632;23.298;2022-12-29T07:13:35;58.07;;;38.13;;
13032;SDS011;6583;42.632;23.298;2022-12-29T07:16:04;59.07;;;37.83;;
13032;SDS011;6583;42.632;23.298;2022-12-29T07:18:33;55.97;;;36.00;;
13032;SDS011;6583;42.632;23.298;2022-12-29T07:20:59;57.80;;;35.77;;
13032;SDS011;6583;42.632;23.298;2022-12-29T07:23:26;53.23;;;34.83;;
13032;SDS011;6583;42.632;23.298;2022-12-29T07:25:58;56.27;;;35.77;;
13032;SDS011;6583;42.632;23.298;2022-12-29T07:28:25;52.47;;;35.00;;
13032;SDS011;6583;42.632;23.298;2022-12-29T07:30:52;51.43;;;34.73;;
13032;SDS011;6583;42.632;23.298;2022-12-29T07:33:19;50.60;;;35.03;;
13032;SDS011;6583;42.632;23.298;2022-12-29T07:35:47;49.67;;;33.10;;
13032;SDS011;6583;42.632;23.298;2022-12-29T07:38:13;46.77;;;32.63;;
13032;SDS011;6583;42.632;23.298;2022-12-29T07:40:41;48.60;;;33.67;;
13032;SDS011;6583;42.632;23.298;2022-12-29T07:43:07;44.93;;;31.13;;
13032;SDS011;6583;42.632;23.298;2022-12-29T07:45:34;47.27;;;32.00;;
13032;SDS011;6583;42.632;23.298;2022-12-29T07:48:01;46.90;;;32.77;;
13032;SDS011;6583;42.632;23.298;2022-12-29T07:50:28;44.53;;;31.67;;
13032;SDS011;6583;42.632;23.298;2022-12-29T07:52:56;46.67;;;32.00;;
13032;SDS011;6583;42.632;23.298;2022-12-29T07:55:23;48.33;;;32.30;;
13032;SDS011;6583;42.632;23.298;2022-12-29T07:57:49;43.97;;;31.90;;
13032;SDS011;6583;42.632;23.298;2022-12-29T08:00:19;44.03;;;32.23;;
13032;SDS011;6583;42.632;23.298;2022-12-29T08:02:45;48.13;;;33.87;;
13032;SDS011;6583;42.632;23.298;2022-12-29T08:05:12;45.97;;;33.20;;
13032;SDS011;6583;42.632;23.298;2022-12-29T08:07:42;47.97;;;33.10;;
13032;SDS011;6583;42.632;23.298;2022-12-29T08:10:11;46.00;;;33.73;;
13032;SDS011;6583;42.632;23.298;2022-12-29T08:12:38;48.60;;;34.17;;
13032;SDS011;6583;42.632;23.298;2022-12-29T08:15:06;47.03;;;33.77;;
13032;SDS011;6583;42.632;23.298;2022-12-29T08:17:34;48.80;;;35.03;;
13032;SDS011;6583;42.632;23.298;2022-12-29T08:20:00;45.63;;;33.23;;
13032;SDS011;6583;42.632;23.298;2022-12-29T08:22:27;49.93;;;35.10;;
13032;SDS011;6583;42.632;23.298;2022-12-29T08:24:54;48.33;;;34.40;;
13032;SDS011;6583;42.632;23.298;2022-12-29T08:27:22;46.50;;;34.43;;
13032;SDS011;6583;42.632;23.298;2022-12-29T08:29:49;54.17;;;35.93;;
13032;SDS011;6583;42.632;23.298;2022-12-29T08:32:16;46.93;;;34.50;;
13032;SDS011;6583;42.632;23.298;2022-12-29T08:34:42;48.53;;;34.93;;
13032;SDS011;6583;42.632;23.298;2022-12-29T08:37:09;49.77;;;34.63;;
13032;SDS011;6583;42.632;23.298;2022-12-29T08:39:36;49.37;;;34.83;;
13032;SDS011;6583;42.632;23.298;2022-12-29T08:42:02;50.90;;;35.60;;
13032;SDS011;6583;42.632;23.298;2022-12-29T08:44:30;47.97;;;37.57;;
13032;SDS011;6583;42.632;23.298;2022-12-29T08:46:57;48.23;;;35.30;;
13032;SDS011;6583;42.632;23.298;2022-12-29T08:49:24;51.00;;;36.67;;
13032;SDS011;6583;42.632;23.298;2022-12-29T08:51:50;49.10;;;35.93;;
13032;SDS011;6583;42.632;23.298;2022-12-29T08:54:17;45.57;;;35.43;;
13032;SDS011;6583;42.632;23.298;2022-12-29T08:56:44;48.17;;;36.77;;
13032;SDS011;6583;42.632;23.298;2022-12-29T08:59:10;49.63;;;36.10;;
13032;SDS011;6583;42.632;23.298;2022-12-29T09:01:38;51.83;;;36.73;;
13032;SDS011;6583;42.632;23.298;2022-12-29T09:04:05;48.10;;;35.33;;
13032;SDS011;6583;42.632;23.298;2022-12-29T09:06:32;48.13;;;35.73;;
13032;SDS011;6583;42.632;23.298;2022-12-29T09:08:59;50.17;;;35.23;;
13032;SDS011;6583;42.632;23.298;2022-12-29T09:11:26;54.53;;;36.53;;
13032;SDS011;6583;42.632;23.298;2022-12-29T09:13:52;49.23;;;35.37;;
13032;SDS011;6583;42.632;23.298;2022-12-29T09:16:20;48.07;;;36.17;;
13032;SDS011;6583;42.632;23.298;2022-12-29T09:18:49;49.60;;;36.80;;
13032;SDS011;6583;42.632;23.298;2022-12-29T09:21:16;50.20;;;36.70;;
13032;SDS011;6583;42.632;23.298;2022-12-29T09:23:43;51.53;;;36.67;;
13032;SDS011;6583;42.632;23.298;2022-12-29T09:26:10;65.33;;;44.97;;
13032;SDS011;6583;42.632;23.298;2022-12-29T09:28:36;50.63;;;37.77;;
13032;SDS011;6583;42.632;23.298;2022-12-29T09:31:03;50.70;;;38.07;;
13032;SDS011;6583;42.632;23.298;2022-12-29T09:33:30;51.30;;;36.17;;
13032;SDS011;6583;42.632;23.298;2022-12-29T09:36:00;49.13;;;33.50;;
13032;SDS011;6583;42.632;23.298;2022-12-29T09:38:28;47.03;;;33.20;;
13032;SDS011;6583;42.632;23.298;2022-12-29T09:40:56;45.90;;;34.27;;
13032;SDS011;6583;42.632;23.298;2022-12-29T09:43:42;50.40;;;34.70;;
13032;SDS011;6583;42.632;23.298;2022-12-29T09:46:28;43.87;;;32.77;;
13032;SDS011;6583;42.632;23.298;2022-12-29T09:49:02;45.47;;;33.97;;
13032;SDS011;6583;42.632;23.298;2022-12-29T09:51:39;47.93;;;34.70;;
13032;SDS011;6583;42.632;23.298;2022-12-29T09:54:17;44.93;;;35.13;;
13032;SDS011;6583;42.632;23.298;2022-12-29T09:56:50;46.07;;;34.37;;
13032;SDS011;6583;42.632;23.298;2022-12-29T09:59:19;51.27;;;34.03;;
13032;SDS011;6583;42.632;23.298;2022-12-29T10:01:51;43.87;;;33.80;;
13032;SDS011;6583;42.632;23.298;2022-12-29T10:04:25;47.47;;;35.73;;
13032;SDS011;6583;42.632;23.298;2022-12-29T10:06:55;45.13;;;34.53;;
13032;SDS011;6583;42.632;23.298;2022-12-29T10:09:26;49.63;;;35.90;;
13032;SDS011;6583;42.632;23.298;2022-12-29T10:12:02;62.90;;;35.93;;
13032;SDS011;6583;42.632;23.298;2022-12-29T10:14:45;50.67;;;36.20;;
13032;SDS011;6583;42.632;23.298;2022-12-29T10:17:25;46.63;;;35.97;;
13032;SDS011;6583;42.632;23.298;2022-12-29T10:20:04;51.10;;;36.27;;
13032;SDS011;6583;42.632;23.298;2022-12-29T10:22:47;48.13;;;35.77;;
13032;SDS011;6583;42.632;23.298;2022-12-29T10:25:29;50.60;;;36.63;;
13032;SDS011;6583;42.632;23.298;2022-12-29T10:28:02;46.83;;;36.67;;
13032;SDS011;6583;42.632;23.298;2022-12-29T10:30:32;54.00;;;38.20;;
13032;SDS011;6583;42.632;23.298;2022-12-29T10:33:01;51.27;;;37.47;;
13032;SDS011;6583;42.632;23.298;2022-12-29T10:35:32;47.87;;;36.23;;
13032;SDS011;6583;42.632;23.298;2022-12-29T10:38:09;51.83;;;38.40;;
13032;SDS011;6583;42.632;23.298;2022-12-29T10:40:42;52.40;;;38.80;;
13032;SDS011;6583;42.632;23.298;2022-12-29T10:43:17;54.83;;;39.63;;
13032;SDS011;6583;42.632;23.298;2022-12-29T10:45:50;53.67;;;39.10;;
13032;SDS011;6583;42.632;23.298;2022-12-29T10:48:20;53.83;;;39.47;;
13032;SDS011;6583;42.632;23.298;2022-12-29T10:50:49;57.23;;;40.80;;
13032;SDS011;6583;42.632;23.298;2022-12-29T10:53:19;57.83;;;41.47;;
13032;SDS011;6583;42.632;23.298;2022-12-29T10:55:48;60.33;;;42.37;;
13032;SDS011;6583;42.632;23.298;2022-12-29T10:58:16;56.67;;;41.53;;
13032;SDS011;6583;42.632;23.298;2022-12-29T11:00:43;56.80;;;42.57;;
13032;SDS011;6583;42.632;23.298;2022-12-29T11:03:31;54.07;;;40.00;;
13032;SDS011;6583;42.632;23.298;2022-12-29T11:06:18;53.80;;;39.07;;
13032;SDS011;6583;42.632;23.298;2022-12-29T11:08:52;54.63;;;39.53;;
13032;SDS011;6583;42.632;23.298;2022-12-29T11:11:23;55.13;;;39.30;;
13032;SDS011;6583;42.632;23.298;2022-12-29T11:13:55;52.23;;;38.60;;
13032;SDS011;6583;42.632;23.298;2022-12-29T11:16:27;51.73;;;39.00;;
13032;SDS011;6583;42.632;23.298;2022-12-29T11:18:57;53.00;;;38.77;;
13032;SDS011;6583;42.632;23.298;2022-12-29T11:21:25;53.23;;;35.93;;
13032;SDS011;6583;42.632;23.298;2022-12-29T11:23:58;50.23;;;37.63;;
13032;SDS011;6583;42.632;23.298;2022-12-29T11:26:26;56.53;;;38.53;;
13032;SDS011;6583;42.632;23.298;2022-12-29T11:31:47;51.73;;;37.23;;
13032;SDS011;6583;42.632;23.298;2022-12-29T11:34:19;49.70;;;35.90;;
13032;SDS011;6583;42.632;23.298;2022-12-29T11:36:48;50.20;;;35.67;;
13032;SDS011;6583;42.632;23.298;2022-12-29T11:39:25;51.73;;;36.47;;
13032;SDS011;6583;42.632;23.298;2022-12-29T11:41:56;53.50;;;36.00;;
13032;SDS011;6583;42.632;23.298;2022-12-29T11:44:23;48.77;;;35.87;;
13032;SDS011;6583;42.632;23.298;2022-12-29T11:46:51;51.80;;;36.77;;
13032;SDS011;6583;42.632;23.298;2022-12-29T11:49:19;48.67;;;34.67;;
13032;SDS011;6583;42.632;23.298;2022-12-29T11:51:48;45.93;;;35.07;;
13032;SDS011;6583;42.632;23.298;2022-12-29T11:54:18;50.33;;;36.10;;
13032;SDS011;6583;42.632;23.298;2022-12-29T11:56:49;48.10;;;35.27;;
13032;SDS011;6583;42.632;23.298;2022-12-29T12:02:24;50.40;;;36.47;;
13032;SDS011;6583;42.632;23.298;2022-12-29T12:04:59;48.47;;;36.53;;
13032;SDS011;6583;42.632;23.298;2022-12-29T12:07:33;49.30;;;35.77;;
13032;SDS011;6583;42.632;23.298;2022-12-29T12:10:06;48.73;;;35.70;;
13032;SDS011;6583;42.632;23.298;2022-12-29T12:12:44;55.50;;;37.73;;
13032;SDS011;6583;42.632;23.298;2022-12-29T12:15:15;47.87;;;36.27;;
13032;SDS011;6583;42.632;23.298;2022-12-29T12:17:48;48.10;;;35.77;;
13032;SDS011;6583;42.632;23.298;2022-12-29T12:20:20;49.97;;;35.47;;
13032;SDS011;6583;42.632;23.298;2022-12-29T12:22:51;52.77;;;36.97;;
13032;SDS011;6583;42.632;23.298;2022-12-29T12:25:25;46.67;;;36.27;;
13032;SDS011;6583;42.632;23.298;2022-12-29T12:28:00;55.07;;;37.50;;
13032;SDS011;6583;42.632;23.298;2022-12-29T12:30:33;47.10;;;35.27;;
13032;SDS011;6583;42.632;23.298;2022-12-29T12:33:06;65.83;;;37.40;;
13032;SDS011;6583;42.632;23.298;2022-12-29T12:35:43;47.63;;;35.20;;
13032;SDS011;6583;42.632;23.298;2022-12-29T12:38:17;48.60;;;34.30;;
13032;SDS011;6583;42.632;23.298;2022-12-29T12:40:58;45.97;;;32.93;;
13032;SDS011;6583;42.632;23.298;2022-12-29T12:43:37;48.40;;;33.13;;
13032;SDS011;6583;42.632;23.298;2022-12-29T12:46:24;44.70;;;32.40;;
13032;SDS011;6583;42.632;23.298;2022-12-29T12:49:16;41.97;;;30.90;;
13032;SDS011;6583;42.632;23.298;2022-12-29T12:51:54;55.23;;;33.23;;
13032;SDS011;6583;42.632;23.298;2022-12-29T12:54:32;38.67;;;30.43;;
13032;SDS011;6583;42.632;23.298;2022-12-29T12:57:11;40.40;;;28.90;;
13032;SDS011;6583;42.632;23.298;2022-12-29T12:59:52;44.50;;;29.97;;
13032;SDS011;6583;42.632;23.298;2022-12-29T13:02:31;38.17;;;27.90;;
13032;SDS011;6583;42.632;23.298;2022-12-29T13:05:09;38.27;;;28.33;;
13032;SDS011;6583;42.632;23.298;2022-12-29T13:07:49;33.50;;;25.87;;
13032;SDS011;6583;42.632;23.298;2022-12-29T13:10:37;40.37;;;28.40;;
13032;SDS011;6583;42.632;23.298;2022-12-29T13:13:24;39.27;;;28.53;;
13032;SDS011;6583;42.632;23.298;2022-12-29T13:16:04;38.50;;;26.87;;
13032;SDS011;6583;42.632;23.298;2022-12-29T13:18:37;36.67;;;25.03;;
13032;SDS011;6583;42.632;23.298;2022-12-29T13:21:25;34.27;;;25.83;;
13032;SDS011;6583;42.632;23.298;2022-12-29T13:24:00;36.63;;;24.27;;
13032;SDS011;6583;42.632;23.298;2022-12-29T13:26:34;36.00;;;24.83;;
13032;SDS011;6583;42.632;23.298;2022-12-29T13:29:10;33.40;;;22.30;;
13032;SDS011;6583;42.632;23.298;2022-12-29T13:31:45;31.50;;;22.23;;
13032;SDS011;6583;42.632;23.298;2022-12-29T13:34:20;44.77;;;25.00;;
13032;SDS011;6583;42.632;23.298;2022-12-29T13:36:54;26.37;;;18.80;;
13032;SDS011;6583;42.632;23.298;2022-12-29T13:39:26;23.90;;;18.13;;
13032;SDS011;6583;42.632;23.298;2022-12-29T13:41:59;26.43;;;19.33;;
13032;SDS011;6583;42.632;23.298;2022-12-29T13:44:30;21.13;;;16.10;;
13032;SDS011;6583;42.632;23.298;2022-12-29T13:47:02;28.03;;;17.33;;
13032;SDS011;6583;42.632;23.298;2022-12-29T13:49:37;26.60;;;18.20;;
13032;SDS011;6583;42.632;23.298;2022-12-29T13:52:08;29.83;;;20.87;;
13032;SDS011;6583;42.632;23.298;2022-12-29T13:54:40;31.57;;;20.87;;
13032;SDS011;6583;42.632;23.298;2022-12-29T13:57:12;31.57;;;22.63;;
13032;SDS011;6583;42.632;23.298;2022-12-29T13:59:48;33.03;;;23.23;;
13032;SDS011;6583;42.632;23.298;2022-12-29T14:02:24;45.00;;;23.53;;
13032;SDS011;6583;42.632;23.298;2022-12-29T14:04:58;49.27;;;23.33;;
13032;SDS011;6583;42.632;23.298;2022-12-29T14:07:27;32.60;;;22.67;;
13032;SDS011;6583;42.632;23.298;2022-12-29T14:09:55;30.63;;;21.67;;
13032;SDS011;6583;42.632;23.298;2022-12-29T14:12:32;29.80;;;22.40;;
13032;SDS011;6583;42.632;23.298;2022-12-29T14:15:13;28.60;;;20.80;;
13032;SDS011;6583;42.632;23.298;2022-12-29T14:18:02;26.03;;;19.67;;
13032;SDS011;6583;42.632;23.298;2022-12-29T14:20:31;26.33;;;18.40;;
13032;SDS011;6583;42.632;23.298;2022-12-29T14:22:59;33.33;;;20.50;;
13032;SDS011;6583;42.632;23.298;2022-12-29T14:28:26;22.00;;;15.67;;
13032;SDS011;6583;42.632;23.298;2022-12-29T14:30:54;21.47;;;15.07;;
13032;SDS011;6583;42.632;23.298;2022-12-29T14:33:23;159.10;;;26.07;;
13032;SDS011;6583;42.632;23.298;2022-12-29T14:35:52;28.17;;;19.23;;
13032;SDS011;6583;42.632;23.298;2022-12-29T14:38:21;28.90;;;20.30;;
13032;SDS011;6583;42.632;23.298;2022-12-29T14:40:53;27.93;;;19.27;;
13032;SDS011;6583;42.632;23.298;2022-12-29T14:43:54;32.37;;;21.67;;
13032;SDS011;6583;42.632;23.298;2022-12-29T14:46:24;30.70;;;22.13;;
13032;SDS011;6583;42.632;23.298;2022-12-29T14:49:09;35.67;;;24.20;;
13032;SDS011;6583;42.632;23.298;2022-12-29T14:51:43;37.67;;;26.17;;
13032;SDS011;6583;42.632;23.298;2022-12-29T14:57:33;35.37;;;24.67;;
13032;SDS011;6583;42.632;23.298;2022-12-29T15:00:07;36.57;;;22.60;;
13032;SDS011;6583;42.632;23.298;2022-12-29T15:02:44;35.27;;;23.10;;